Time;durP1;ratioP1;P1;durP2;ratioP2;P2;SDS_P1;SDS_P2;PMS_P1;PMS_P2;Temp;Humidity;BMP_temperature;BMP_pressure;BME280_temperature;BME280_humidity;BME280_pressure;Samples;Min_cycle;Max_cycle;Signal;HPM_P1;HPM_P2
2023/09/30 00:00:43;;;;;;;78.05;74.18;;;;;;;;;;5046150;28;20036;-64
2023/09/30 00:03:10;;;;;;;74.70;70.82;;;;;;;;;;5045986;28;20033;-65
2023/09/30 00:05:36;;;;;;;63.83;60.50;;;;;;;;;;5047734;28;20047;-64
2023/09/30 00:08:02;;;;;;;73.85;70.15;;;;;;;;;;5046062;28;20044;-65
2023/09/30 00:10:30;;;;;;;73.63;69.93;;;;;;;;;;5045977;28;20044;-65
2023/09/30 00:12:56;;;;;;;69.57;66.07;;;;;;;;;;5046230;28;20456;-64
2023/09/30 00:15:21;;;;;;;65.88;62.53;;;;;;;;;;5045804;28;20033;-64
2023/09/30 00:17:46;;;;;;;62.17;59.05;;;;;;;;;;5034374;28;20295;-65
2023/09/30 00:20:14;;;;;;;62.28;59.05;;;;;;;;;;5044356;28;20441;-65
2023/09/30 00:22:39;;;;;;;65.22;61.85;;;;;;;;;;5044972;28;20780;-65
2023/09/30 00:25:05;;;;;;;68.45;64.55;;;;;;;;;;5046254;28;20079;-66
2023/09/30 00:27:31;;;;;;;61.03;57.85;;;;;;;;;;5047266;28;20171;-65
2023/09/30 00:29:56;;;;;;;64.30;61.05;;;;;;;;;;5047214;28;20151;-66
2023/09/30 00:32:22;;;;;;;64.50;61.25;;;;;;;;;;5041053;28;20078;-65
2023/09/30 00:34:47;;;;;;;68.72;65.18;;;;;;;;;;5047321;28;20103;-65
2023/09/30 00:37:13;;;;;;;66.28;62.95;;;;;;;;;;5044500;28;20032;-65
2023/09/30 00:39:38;;;;;;;69.93;66.38;;;;;;;;;;5049032;28;20095;-65
2023/09/30 00:42:04;;;;;;;69.88;65.95;;;;;;;;;;5048812;28;20028;-65
2023/09/30 00:44:30;;;;;;;65.28;62.03;;;;;;;;;;5044837;28;20033;-65
2023/09/30 00:46:56;;;;;;;66.88;63.42;;;;;;;;;;5045844;28;20426;-65
2023/09/30 00:49:24;;;;;;;65.78;62.25;;;;;;;;;;5048484;28;20415;-65
2023/09/30 00:51:50;;;;;;;65.50;61.17;;;;;;;;;;5047667;28;20033;-65
2023/09/30 00:54:16;;;;;;;66.60;62.03;;;;;;;;;;5049443;28;20044;-65
2023/09/30 00:56:46;;;;;;;53.97;51.22;;;;;;;;;;5046464;28;20104;-65
2023/09/30 00:59:15;;;;;;;58.25;55.30;;;;;;;;;;5043740;28;20049;-65
2023/09/30 01:01:43;;;;;;;61.38;58.33;;;;;;;;;;5048897;28;20040;-65
2023/09/30 01:04:09;;;;;;;56.28;53.40;;;;;;;;;;5044046;28;20039;-65
2023/09/30 01:06:35;;;;;;;50.45;47.90;;;;;;;;;;5050422;28;20033;-65
2023/09/30 01:09:00;;;;;;;53.42;50.00;;;;;;;;;;5051455;28;20068;-65
2023/09/30 01:11:26;;;;;;;57.13;54.25;;;;;;;;;;5047290;28;20071;-65
2023/09/30 01:13:51;;;;;;;63.03;59.67;;;;;;;;;;5045939;28;20037;-65
2023/09/30 01:16:17;;;;;;;61.88;58.75;;;;;;;;;;5048911;28;20458;-65
2023/09/30 01:18:42;;;;;;;63.15;59.83;;;;;;;;;;5049283;28;20036;-65
2023/09/30 01:21:09;;;;;;;47.55;45.10;;;;;;;;;;5048435;28;20036;-65
2023/09/30 01:23:35;;;;;;;41.75;39.60;;;;;;;;;;5045931;28;20107;-65
2023/09/30 01:26:03;;;;;;;46.60;44.17;;;;;;;;;;5049617;28;20033;-66
2023/09/30 01:28:29;;;;;;;41.53;39.33;;;;;;;;;;5046095;28;20025;-65
2023/09/30 01:30:54;;;;;;;42.53;40.30;;;;;;;;;;5044890;28;20116;-65
2023/09/30 01:33:20;;;;;;;41.90;39.60;;;;;;;;;;5047047;28;20065;-65
2023/09/30 01:35:45;;;;;;;44.22;41.97;;;;;;;;;;5046318;28;20037;-65
2023/09/30 01:38:11;;;;;;;49.55;47.00;;;;;;;;;;5044298;28;20052;-65
2023/09/30 01:40:37;;;;;;;51.67;49.03;;;;;;;;;;5046945;28;20063;-65
2023/09/30 01:43:03;;;;;;;50.15;47.58;;;;;;;;;;5045690;28;20068;-65
2023/09/30 01:45:29;;;;;;;56.97;54.10;;;;;;;;;;5047096;28;20094;-65
2023/09/30 01:47:54;;;;;;;60.88;57.83;;;;;;;;;;5045638;28;20040;-65
2023/09/30 01:50:19;;;;;;;49.30;46.67;;;;;;;;;;5045784;28;20092;-65
2023/09/30 01:52:45;;;;;;;50.47;47.63;;;;;;;;;;5047934;28;20455;-64
2023/09/30 01:55:11;;;;;;;48.05;45.58;;;;;;;;;;5046104;28;20071;-64
2023/09/30 01:57:36;;;;;;;41.90;39.63;;;;;;;;;;5045212;28;20040;-64
2023/09/30 02:00:02;;;;;;;42.70;40.03;;;;;;;;;;5047647;28;20149;-64
2023/09/30 02:02:28;;;;;;;43.95;41.60;;;;;;;;;;5044008;28;20120;-64
2023/09/30 02:04:53;;;;;;;43.88;41.58;;;;;;;;;;5048690;28;20476;-65
2023/09/30 02:07:19;;;;;;;48.85;46.35;;;;;;;;;;5043342;28;20047;-64
2023/09/30 02:09:44;;;;;;;37.35;35.40;;;;;;;;;;5045484;28;20040;-64
2023/09/30 02:12:10;;;;;;;35.50;33.58;;;;;;;;;;5046640;28;21196;-64
2023/09/30 02:14:35;;;;;;;43.70;41.35;;;;;;;;;;5044366;28;20029;-64
2023/09/30 02:17:01;;;;;;;35.80;33.88;;;;;;;;;;5047062;28;20051;-64
2023/09/30 02:19:27;;;;;;;33.05;30.83;;;;;;;;;;5042227;28;20116;-64
2023/09/30 02:21:53;;;;;;;34.53;32.72;;;;;;;;;;5049028;28;20386;-65
2023/09/30 02:24:18;;;;;;;37.75;35.78;;;;;;;;;;5046892;28;20116;-64
2023/09/30 02:26:43;;;;;;;36.13;33.90;;;;;;;;;;5046969;28;20052;-64
2023/09/30 02:29:09;;;;;;;40.45;37.80;;;;;;;;;;5042433;28;20778;-65
2023/09/30 02:31:35;;;;;;;35.17;33.38;;;;;;;;;;5045787;28;20064;-64
2023/09/30 02:34:03;;;;;;;32.85;31.05;;;;;;;;;;5046261;28;20060;-65
2023/09/30 02:36:29;;;;;;;38.58;36.28;;;;;;;;;;5045370;28;20130;-65
2023/09/30 02:38:54;;;;;;;33.53;31.65;;;;;;;;;;5047467;28;20112;-65
2023/09/30 02:41:20;;;;;;;44.25;41.95;;;;;;;;;;5045807;28;20646;-65
2023/09/30 02:43:46;;;;;;;40.00;37.65;;;;;;;;;;5042927;28;20033;-65
2023/09/30 02:46:12;;;;;;;44.70;42.42;;;;;;;;;;5045757;28;20085;-65
2023/09/30 02:48:37;;;;;;;38.35;36.22;;;;;;;;;;5046259;28;20045;-64
2023/09/30 02:51:04;;;;;;;33.40;31.63;;;;;;;;;;5048880;28;20067;-65
2023/09/30 02:53:29;;;;;;;35.10;33.25;;;;;;;;;;5043033;28;20032;-64
2023/09/30 02:55:56;;;;;;;35.83;33.88;;;;;;;;;;5045553;28;20044;-64
2023/09/30 02:58:23;;;;;;;31.98;30.33;;;;;;;;;;5043316;28;20045;-64
2023/09/30 03:00:49;;;;;;;38.17;36.13;;;;;;;;;;5045067;28;20043;-64
2023/09/30 03:03:15;;;;;;;42.03;39.67;;;;;;;;;;5043047;28;20025;-64
2023/09/30 03:05:41;;;;;;;37.13;35.17;;;;;;;;;;5044091;28;20033;-66
2023/09/30 03:08:06;;;;;;;44.88;42.47;;;;;;;;;;5044173;28;20089;-64
2023/09/30 03:10:32;;;;;;;42.15;39.88;;;;;;;;;;5039967;28;20561;-64
2023/09/30 03:13:03;;;;;;;39.92;37.80;;;;;;;;;;5043924;28;20052;-64
2023/09/30 03:15:32;;;;;;;41.35;39.17;;;;;;;;;;5043165;28;20025;-64
2023/09/30 03:17:59;;;;;;;39.17;36.90;;;;;;;;;;5049232;28;20040;-64
2023/09/30 03:20:25;;;;;;;38.80;36.80;;;;;;;;;;5046260;28;20016;-64
2023/09/30 03:22:51;;;;;;;37.65;35.63;;;;;;;;;;5050637;28;20040;-64
2023/09/30 03:25:18;;;;;;;33.83;32.08;;;;;;;;;;5045492;28;20056;-64
2023/09/30 03:27:47;;;;;;;33.42;31.67;;;;;;;;;;5043914;28;20029;-64
2023/09/30 03:30:16;;;;;;;32.25;30.52;;;;;;;;;;5043237;28;20447;-64
2023/09/30 03:32:42;;;;;;;31.00;29.35;;;;;;;;;;5044635;28;20029;-64
2023/09/30 03:35:16;;;;;;;34.05;32.17;;;;;;;;;;5050521;28;20632;-65
2023/09/30 03:37:46;;;;;;;29.58;28.02;;;;;;;;;;5049761;28;20123;-64
2023/09/30 03:40:14;;;;;;;32.10;29.17;;;;;;;;;;5050855;28;20047;-64
2023/09/30 03:42:43;;;;;;;31.42;29.33;;;;;;;;;;5049815;28;20028;-65
2023/09/30 03:45:09;;;;;;;34.88;32.88;;;;;;;;;;5050665;28;20046;-64
2023/09/30 03:47:36;;;;;;;39.67;37.55;;;;;;;;;;5048370;28;20037;-64
2023/09/30 03:50:03;;;;;;;35.13;33.25;;;;;;;;;;5048381;28;20037;-64
2023/09/30 03:52:29;;;;;;;32.60;30.73;;;;;;;;;;5048283;28;20120;-64
2023/09/30 03:54:54;;;;;;;31.02;29.30;;;;;;;;;;5046585;28;20163;-64
2023/09/30 03:57:20;;;;;;;33.10;30.98;;;;;;;;;;5045649;28;20047;-64
2023/09/30 03:59:48;;;;;;;28.85;27.27;;;;;;;;;;5045316;28;20478;-64
2023/09/30 04:02:14;;;;;;;29.42;27.23;;;;;;;;;;5047533;28;20032;-64
2023/09/30 04:04:40;;;;;;;29.08;27.45;;;;;;;;;;5047954;28;20056;-64
2023/09/30 04:07:05;;;;;;;29.35;27.83;;;;;;;;;;5046217;28;20062;-65
2023/09/30 04:09:32;;;;;;;31.08;29.27;;;;;;;;;;5048293;28;20049;-65
2023/09/30 04:11:58;;;;;;;33.15;31.40;;;;;;;;;;5050040;28;20112;-64
2023/09/30 04:14:24;;;;;;;29.63;28.02;;;;;;;;;;5031071;28;20037;-66
2023/09/30 04:16:50;;;;;;;29.90;28.30;;;;;;;;;;5045174;28;20041;-66
2023/09/30 04:19:16;;;;;;;28.77;27.20;;;;;;;;;;5047317;28;20039;-66
2023/09/30 04:21:42;;;;;;;28.08;26.55;;;;;;;;;;5049072;28;20049;-64
2023/09/30 04:24:09;;;;;;;30.10;28.45;;;;;;;;;;5034143;28;20025;-67
2023/09/30 04:26:34;;;;;;;28.02;26.52;;;;;;;;;;5049945;28;20036;-66
2023/09/30 04:29:05;;;;;;;25.10;23.73;;;;;;;;;;5050564;28;20358;-66
2023/09/30 04:31:30;;;;;;;28.40;26.85;;;;;;;;;;5048995;28;20612;-66
2023/09/30 04:33:57;;;;;;;28.52;26.98;;;;;;;;;;5046275;28;20098;-64
2023/09/30 04:36:23;;;;;;;26.10;24.70;;;;;;;;;;5047582;28;20339;-66
2023/09/30 04:38:49;;;;;;;28.40;26.85;;;;;;;;;;5049023;28;20048;-66
2023/09/30 04:41:15;;;;;;;25.73;24.33;;;;;;;;;;5048707;28;20527;-66
2023/09/30 04:43:43;;;;;;;23.90;22.55;;;;;;;;;;5045538;28;20046;-67
2023/09/30 04:46:09;;;;;;;28.40;25.58;;;;;;;;;;5043411;28;20352;-66
2023/09/30 04:48:34;;;;;;;25.25;23.90;;;;;;;;;;5042943;28;20067;-66
2023/09/30 04:51:00;;;;;;;27.83;26.35;;;;;;;;;;5048996;28;20032;-66
2023/09/30 04:53:25;;;;;;;26.65;25.20;;;;;;;;;;5046443;28;20030;-66
2023/09/30 04:55:50;;;;;;;24.48;23.13;;;;;;;;;;5049070;28;20040;-66
2023/09/30 04:58:16;;;;;;;24.15;22.85;;;;;;;;;;5047154;28;20040;-65
2023/09/30 05:00:42;;;;;;;25.10;23.60;;;;;;;;;;5045949;28;20033;-64
2023/09/30 05:03:08;;;;;;;23.33;21.73;;;;;;;;;;5046685;28;20039;-64
2023/09/30 05:05:34;;;;;;;26.02;24.63;;;;;;;;;;5048393;28;20106;-65
2023/09/30 05:08:00;;;;;;;26.55;25.02;;;;;;;;;;5046310;28;20572;-65
2023/09/30 05:10:25;;;;;;;25.52;23.95;;;;;;;;;;5048661;28;20031;-67
2023/09/30 05:12:53;;;;;;;23.60;22.23;;;;;;;;;;5045391;28;20036;-65
2023/09/30 05:15:20;;;;;;;25.63;24.23;;;;;;;;;;5045713;28;20141;-65
2023/09/30 05:53:58;;;;;;;27.17;25.48;;;;;;;;;;5124826;22;20050;-66
2023/09/30 05:56:23;;;;;;;25.73;24.33;;;;;;;;;;5000162;28;20052;-64
2023/09/30 05:58:48;;;;;;;26.88;25.00;;;;;;;;;;5001585;28;20121;-62
2023/09/30 06:01:15;;;;;;;27.20;25.40;;;;;;;;;;5001410;28;20050;-62
2023/09/30 06:03:41;;;;;;;28.77;27.17;;;;;;;;;;4995179;28;20507;-64
2023/09/30 06:06:13;;;;;;;26.65;25.08;;;;;;;;;;4994523;28;20034;-63
2023/09/30 06:08:39;;;;;;;26.85;25.27;;;;;;;;;;4996692;28;20742;-63
2023/09/30 06:11:05;;;;;;;26.65;25.25;;;;;;;;;;5001427;28;20251;-64
2023/09/30 06:13:32;;;;;;;24.55;23.17;;;;;;;;;;4997386;28;20349;-64
2023/09/30 06:15:58;;;;;;;25.25;23.85;;;;;;;;;;4982910;28;20093;-64
2023/09/30 06:18:23;;;;;;;26.38;24.88;;;;;;;;;;5001670;28;20076;-64
2023/09/30 06:20:50;;;;;;;26.08;24.67;;;;;;;;;;4999377;28;20256;-63
2023/09/30 06:23:16;;;;;;;26.77;25.23;;;;;;;;;;4998328;28;20048;-64
2023/09/30 06:25:42;;;;;;;28.65;26.98;;;;;;;;;;4996709;28;20038;-64
2023/09/30 06:28:08;;;;;;;24.55;23.15;;;;;;;;;;5002990;28;20076;-64
2023/09/30 06:30:34;;;;;;;26.42;24.73;;;;;;;;;;5000289;28;20045;-64
2023/09/30 06:33:00;;;;;;;25.38;23.95;;;;;;;;;;4996647;28;20227;-64
2023/09/30 06:35:27;;;;;;;26.15;24.67;;;;;;;;;;4999249;28;20030;-64
2023/09/30 06:37:52;;;;;;;26.25;24.80;;;;;;;;;;4984146;28;20076;-64
2023/09/30 06:40:18;;;;;;;30.27;28.65;;;;;;;;;;4995128;28;20517;-64
2023/09/30 06:42:44;;;;;;;25.98;24.52;;;;;;;;;;4981198;28;20034;-64
2023/09/30 06:45:10;;;;;;;28.15;26.65;;;;;;;;;;4995906;28;20054;-64
2023/09/30 06:47:37;;;;;;;25.23;23.83;;;;;;;;;;4998622;28;20125;-63
2023/09/30 06:50:07;;;;;;;27.80;26.30;;;;;;;;;;4984326;28;20343;-64
2023/09/30 06:52:38;;;;;;;25.98;24.27;;;;;;;;;;4999026;28;20056;-63
2023/09/30 06:55:04;;;;;;;27.55;25.45;;;;;;;;;;4997728;28;20042;-63
2023/09/30 06:57:34;;;;;;;26.63;24.83;;;;;;;;;;4985243;28;20038;-63
2023/09/30 07:00:00;;;;;;;25.23;23.42;;;;;;;;;;4996963;28;20025;-64
2023/09/30 07:02:25;;;;;;;24.80;23.42;;;;;;;;;;4999765;28;20427;-63
2023/09/30 07:04:52;;;;;;;24.17;22.85;;;;;;;;;;4974438;28;20034;-63
2023/09/30 07:07:17;;;;;;;27.83;26.30;;;;;;;;;;5000446;28;20085;-64
2023/09/30 07:09:44;;;;;;;25.98;24.63;;;;;;;;;;4997254;28;20688;-64
2023/09/30 07:12:09;;;;;;;27.20;25.65;;;;;;;;;;4982474;28;20033;-64
2023/09/30 07:14:34;;;;;;;24.48;22.83;;;;;;;;;;4996919;28;20033;-64
2023/09/30 07:17:00;;;;;;;21.23;20.00;;;;;;;;;;4994746;28;20432;-64
2023/09/30 07:19:25;;;;;;;20.55;19.40;;;;;;;;;;4982122;28;20476;-65
2023/09/30 07:21:51;;;;;;;20.55;19.42;;;;;;;;;;4993870;28;20113;-64
2023/09/30 07:24:16;;;;;;;20.73;19.52;;;;;;;;;;4998201;28;20030;-66
2023/09/30 07:26:41;;;;;;;18.58;17.45;;;;;;;;;;5000055;28;20065;-65
2023/09/30 07:29:09;;;;;;;19.70;18.58;;;;;;;;;;4996572;28;20034;-65
2023/09/30 07:31:37;;;;;;;19.40;18.08;;;;;;;;;;5001555;28;20408;-65
2023/09/30 07:34:02;;;;;;;17.67;16.35;;;;;;;;;;4997829;28;20468;-66
2023/09/30 07:36:28;;;;;;;17.08;16.08;;;;;;;;;;4981409;28;20038;-65
2023/09/30 07:38:54;;;;;;;17.40;16.40;;;;;;;;;;4998282;28;20034;-65
2023/09/30 07:41:19;;;;;;;19.48;18.27;;;;;;;;;;4999809;28;20118;-65
2023/09/30 07:43:44;;;;;;;17.95;16.85;;;;;;;;;;4996145;28;20041;-65
2023/09/30 07:46:10;;;;;;;19.27;17.98;;;;;;;;;;4999299;28;20076;-63
2023/09/30 07:48:35;;;;;;;18.85;17.75;;;;;;;;;;4998272;28;20022;-63
2023/09/30 07:51:01;;;;;;;16.42;15.13;;;;;;;;;;4996771;28;20034;-63
2023/09/30 07:53:27;;;;;;;16.77;15.77;;;;;;;;;;4997704;28;20113;-63
2023/09/30 07:55:54;;;;;;;17.88;16.73;;;;;;;;;;4995392;28;20038;-63
2023/09/30 07:58:20;;;;;;;18.48;17.40;;;;;;;;;;4994230;28;20030;-63
2023/09/30 08:00:45;;;;;;;17.92;16.73;;;;;;;;;;4997020;28;20030;-61
2023/09/30 08:03:11;;;;;;;16.83;15.77;;;;;;;;;;4999474;28;20097;-63
2023/09/30 08:05:37;;;;;;;16.88;15.80;;;;;;;;;;4997252;28;20034;-63
2023/09/30 08:08:03;;;;;;;15.65;14.63;;;;;;;;;;4995602;28;20110;-63
2023/09/30 08:10:31;;;;;;;17.23;16.02;;;;;;;;;;4998787;28;20480;-63
2023/09/30 08:12:58;;;;;;;18.98;17.50;;;;;;;;;;4997010;28;20048;-63
2023/09/30 08:15:24;;;;;;;17.05;15.85;;;;;;;;;;4997443;28;20113;-63
2023/09/30 08:17:49;;;;;;;17.75;16.75;;;;;;;;;;4997353;28;20038;-63
2023/09/30 08:20:15;;;;;;;18.25;16.73;;;;;;;;;;4999525;28;20485;-63
2023/09/30 08:22:40;;;;;;;16.85;15.88;;;;;;;;;;5004018;28;20109;-63
2023/09/30 08:25:07;;;;;;;18.10;16.85;;;;;;;;;;4998739;28;20450;-63
2023/09/30 08:27:32;;;;;;;20.17;18.77;;;;;;;;;;5000117;28;20060;-64
2023/09/30 08:29:58;;;;;;;20.05;18.95;;;;;;;;;;4997683;28;20468;-64
2023/09/30 08:32:23;;;;;;;20.45;19.25;;;;;;;;;;4998382;28;20039;-64
2023/09/30 08:34:49;;;;;;;19.25;17.88;;;;;;;;;;5004514;28;20418;-63
2023/09/30 08:37:14;;;;;;;19.00;17.95;;;;;;;;;;5002228;28;20420;-63
2023/09/30 08:39:40;;;;;;;22.05;19.98;;;;;;;;;;5002300;28;20129;-63
2023/09/30 08:42:12;;;;;;;17.65;16.65;;;;;;;;;;4999287;28;20038;-64
2023/09/30 08:44:39;;;;;;;18.65;17.35;;;;;;;;;;4985118;28;20501;-63
2023/09/30 08:47:07;;;;;;;17.90;16.73;;;;;;;;;;5002768;28;20042;-63
2023/09/30 08:49:40;;;;;;;17.75;16.75;;;;;;;;;;5001788;28;20033;-63
2023/09/30 08:52:09;;;;;;;18.52;17.20;;;;;;;;;;5004575;28;20061;-63
2023/09/30 08:54:34;;;;;;;17.67;16.63;;;;;;;;;;4999432;28;20517;-63
2023/09/30 08:57:03;;;;;;;17.00;16.00;;;;;;;;;;5003395;28;20042;-63
2023/09/30 08:59:29;;;;;;;19.10;18.05;;;;;;;;;;5000197;28;20485;-63
2023/09/30 09:01:54;;;;;;;19.52;18.33;;;;;;;;;;4999165;28;20038;-64
2023/09/30 09:04:20;;;;;;;19.10;17.90;;;;;;;;;;4997799;28;20026;-63
2023/09/30 09:06:45;;;;;;;19.15;18.05;;;;;;;;;;4996739;28;20337;-63
2023/09/30 09:09:16;;;;;;;16.83;15.68;;;;;;;;;;5001213;28;20053;-63
2023/09/30 09:11:43;;;;;;;17.67;16.58;;;;;;;;;;5000218;28;20039;-63
2023/09/30 09:14:08;;;;;;;15.25;14.35;;;;;;;;;;5003751;28;20033;-63
2023/09/30 09:16:34;;;;;;;15.52;14.63;;;;;;;;;;4996087;28;20052;-63
2023/09/30 09:18:59;;;;;;;18.45;17.25;;;;;;;;;;5003819;28;20526;-63
2023/09/30 09:21:27;;;;;;;15.85;14.95;;;;;;;;;;5004150;28;20041;-63
2023/09/30 09:23:53;;;;;;;14.98;14.07;;;;;;;;;;4985674;28;20033;-63
2023/09/30 09:26:30;;;;;;;16.10;15.10;;;;;;;;;;5004661;28;20249;-64
2023/09/30 09:28:57;;;;;;;15.02;14.13;;;;;;;;;;4971124;28;20034;-63
2023/09/30 09:31:29;;;;;;;14.63;13.80;;;;;;;;;;5001639;28;20034;-63
2023/09/30 09:33:55;;;;;;;19.40;18.30;;;;;;;;;;4999050;28;20099;-63
2023/09/30 09:36:21;;;;;;;17.20;16.20;;;;;;;;;;5000379;28;20042;-64
2023/09/30 09:38:49;;;;;;;20.60;19.40;;;;;;;;;;5001256;28;20046;-64
2023/09/30 09:41:15;;;;;;;16.83;15.82;;;;;;;;;;5000178;28;20044;-63
2023/09/30 09:43:42;;;;;;;17.25;16.25;;;;;;;;;;5003224;28;20046;-64
2023/09/30 09:46:08;;;;;;;18.83;17.63;;;;;;;;;;5004393;28;20037;-64
2023/09/30 09:48:37;;;;;;;15.20;14.32;;;;;;;;;;5003387;28;20061;-64
2023/09/30 09:51:09;;;;;;;17.33;16.30;;;;;;;;;;5005635;28;20036;-64
2023/09/30 09:53:38;;;;;;;17.95;16.95;;;;;;;;;;5002595;28;20423;-64
2023/09/30 09:56:07;;;;;;;17.10;16.10;;;;;;;;;;4984553;28;20044;-64
2023/09/30 09:58:34;;;;;;;17.35;16.35;;;;;;;;;;5003205;28;20587;-64
2023/09/30 10:01:05;;;;;;;19.73;18.63;;;;;;;;;;5004259;28;20450;-64
2023/09/30 10:03:32;;;;;;;18.48;17.27;;;;;;;;;;4986317;28;20029;-64
2023/09/30 10:05:59;;;;;;;19.42;18.33;;;;;;;;;;4987059;28;20494;-65
2023/09/30 10:08:39;;;;;;;19.10;17.92;;;;;;;;;;5001532;28;20035;-65
2023/09/30 10:11:04;;;;;;;19.50;18.30;;;;;;;;;;5000038;28;20460;-65
2023/09/30 10:13:55;;;;;;;18.83;17.48;;;;;;;;;;4983951;28;20048;-63
2023/09/30 10:16:36;;;;;;;17.73;16.73;;;;;;;;;;5002175;28;20033;-64
2023/09/30 10:19:11;;;;;;;17.60;16.60;;;;;;;;;;4999941;28;20034;-64
2023/09/30 10:21:37;;;;;;;19.58;18.50;;;;;;;;;;5003393;28;20057;-64
2023/09/30 10:24:24;;;;;;;22.55;21.35;;;;;;;;;;5000758;28;20526;-64
2023/09/30 10:27:28;;;;;;;21.63;20.42;;;;;;;;;;5004216;28;20127;-64
2023/09/30 10:29:56;;;;;;;25.33;23.92;;;;;;;;;;5000221;28;20034;-64
2023/09/30 10:32:21;;;;;;;23.42;22.13;;;;;;;;;;5004151;28;20533;-64
2023/09/30 10:34:49;;;;;;;24.27;22.98;;;;;;;;;;5002399;28;20053;-64
2023/09/30 10:37:22;;;;;;;22.35;21.15;;;;;;;;;;5000468;28;20654;-64
2023/09/30 10:39:58;;;;;;;22.23;21.02;;;;;;;;;;5000853;28;20429;-64
2023/09/30 10:42:46;;;;;;;20.88;19.73;;;;;;;;;;5000646;28;20042;-64
2023/09/30 10:45:40;;;;;;;22.77;21.58;;;;;;;;;;5000511;28;20459;-64
2023/09/30 10:48:24;;;;;;;22.73;21.42;;;;;;;;;;4986058;28;20037;-64
2023/09/30 10:51:00;;;;;;;23.27;21.98;;;;;;;;;;4983463;28;20045;-64
2023/09/30 10:53:27;;;;;;;22.95;21.63;;;;;;;;;;5002430;28;20073;-64
2023/09/30 10:55:55;;;;;;;22.23;20.92;;;;;;;;;;4986481;28;20088;-64
2023/09/30 10:58:21;;;;;;;22.15;20.95;;;;;;;;;;5000352;28;20418;-64
2023/09/30 11:00:53;;;;;;;24.02;22.75;;;;;;;;;;4998767;28;20038;-64
2023/09/30 11:03:20;;;;;;;26.42;24.95;;;;;;;;;;5001747;28;20041;-64
2023/09/30 11:05:51;;;;;;;23.52;22.23;;;;;;;;;;4999849;28;20026;-64
2023/09/30 11:08:19;;;;;;;25.88;24.38;;;;;;;;;;5002586;28;20044;-64
2023/09/30 11:10:51;;;;;;;24.63;23.33;;;;;;;;;;4983247;28;20054;-64
2023/09/30 11:13:18;;;;;;;24.80;23.40;;;;;;;;;;5001782;28;20038;-64
2023/09/30 11:15:47;;;;;;;29.63;28.08;;;;;;;;;;4997857;28;20072;-64
2023/09/30 11:18:13;;;;;;;31.65;29.85;;;;;;;;;;4999749;28;20100;-64
2023/09/30 11:20:39;;;;;;;26.48;25.08;;;;;;;;;;5001278;28;20041;-64
2023/09/30 11:23:04;;;;;;;27.17;25.67;;;;;;;;;;5001033;28;20542;-64
2023/09/30 11:25:35;;;;;;;26.60;25.10;;;;;;;;;;5001698;28;20066;-64
2023/09/30 11:28:13;;;;;;;;;;;;;;;;;;4987991;28;20030;-64
2023/09/30 11:30:56;;;;;;;27.83;26.25;;;;;;;;;;5002090;28;19921;-64
2023/09/30 11:33:25;;;;;;;29.88;28.20;;;;;;;;;;4999734;28;20476;-64
2023/09/30 11:36:02;;;;;;;34.53;32.75;;;;;;;;;;5004626;28;20038;-64
2023/09/30 11:38:28;;;;;;;35.08;33.22;;;;;;;;;;5002717;28;20133;-64
2023/09/30 11:41:06;;;;;;;51.92;49.00;;;;;;;;;;5001215;28;20593;-64
2023/09/30 11:43:33;;;;;;;36.05;34.20;;;;;;;;;;5001840;28;20046;-64
2023/09/30 11:46:09;;;;;;;42.47;40.20;;;;;;;;;;5001829;28;20040;-64
2023/09/30 11:48:36;;;;;;;38.78;36.80;;;;;;;;;;5000352;28;20054;-64
2023/09/30 11:51:04;;;;;;;51.55;48.97;;;;;;;;;;5001591;28;20733;-64
2023/09/30 11:53:30;;;;;;;47.85;45.25;;;;;;;;;;4998721;28;20117;-64
2023/09/30 11:55:59;;;;;;;39.47;37.45;;;;;;;;;;5003952;28;20112;-64
2023/09/30 11:58:28;;;;;;;48.17;45.70;;;;;;;;;;5005958;28;20060;-64
2023/09/30 12:00:59;;;;;;;31.60;29.80;;;;;;;;;;4987845;28;20109;-64
2023/09/30 12:03:27;;;;;;;35.58;33.78;;;;;;;;;;4988536;28;20061;-64
2023/09/30 12:05:55;;;;;;;47.83;45.38;;;;;;;;;;5006000;28;20033;-64
2023/09/30 12:08:23;;;;;;;39.85;37.67;;;;;;;;;;5006786;28;20065;-63
2023/09/30 12:10:49;;;;;;;28.65;27.05;;;;;;;;;;5005495;28;20046;-63
2023/09/30 12:13:15;;;;;;;33.90;32.10;;;;;;;;;;5002523;28;20037;-64
2023/09/30 12:15:41;;;;;;;55.13;52.35;;;;;;;;;;5003075;28;20092;-63
2023/09/30 12:18:06;;;;;;;69.10;65.68;;;;;;;;;;5006513;28;20049;-63
2023/09/30 12:20:32;;;;;;;57.75;54.85;;;;;;;;;;5005216;28;20044;-63
2023/09/30 12:22:57;;;;;;;52.60;49.95;;;;;;;;;;5005897;28;20106;-62
2023/09/30 12:25:25;;;;;;;64.50;61.30;;;;;;;;;;5001794;28;20033;-62
2023/09/30 12:27:50;;;;;;;34.15;32.33;;;;;;;;;;5005252;28;20034;-63
2023/09/30 12:30:16;;;;;;;67.45;64.00;;;;;;;;;;5001465;28;20336;-63
2023/09/30 12:32:42;;;;;;;63.28;60.10;;;;;;;;;;5006020;28;20044;-62
2023/09/30 12:35:08;;;;;;;67.05;63.72;;;;;;;;;;5004944;28;20479;-62
2023/09/30 12:37:33;;;;;;;61.60;58.53;;;;;;;;;;5006208;28;20041;-62
2023/09/30 12:39:58;;;;;;;60.83;57.78;;;;;;;;;;5002703;28;20107;-62
2023/09/30 12:42:24;;;;;;;64.95;61.70;;;;;;;;;;5004327;28;20517;-63
2023/09/30 12:44:50;;;;;;;63.05;59.90;;;;;;;;;;5004137;28;20030;-62
2023/09/30 12:47:15;;;;;;;64.28;61.03;;;;;;;;;;5003298;28;20049;-63
2023/09/30 12:49:41;;;;;;;55.13;52.35;;;;;;;;;;5006418;28;20041;-62
2023/09/30 12:52:07;;;;;;;59.03;56.05;;;;;;;;;;5004804;28;20152;-62
2023/09/30 12:54:32;;;;;;;67.63;64.25;;;;;;;;;;5002938;28;20060;-62
2023/09/30 12:56:58;;;;;;;54.67;51.85;;;;;;;;;;5002935;28;20065;-62
2023/09/30 12:59:25;;;;;;;53.92;51.17;;;;;;;;;;5003301;28;20117;-62
2023/09/30 13:01:51;;;;;;;64.50;61.13;;;;;;;;;;5004311;28;20503;-63
2023/09/30 13:04:16;;;;;;;65.25;62.00;;;;;;;;;;5005998;28;20065;-62
2023/09/30 13:06:42;;;;;;;60.35;57.28;;;;;;;;;;5003777;28;20092;-62
2023/09/30 13:09:08;;;;;;;64.13;60.88;;;;;;;;;;4985002;28;20046;-61
2023/09/30 13:11:34;;;;;;;64.38;61.17;;;;;;;;;;5004657;28;20026;-62
2023/09/30 13:13:59;;;;;;;55.15;52.35;;;;;;;;;;5005224;28;20042;-62
2023/09/30 13:16:25;;;;;;;62.03;58.90;;;;;;;;;;5005025;28;20383;-63
2023/09/30 13:18:53;;;;;;;57.58;54.65;;;;;;;;;;5003023;28;20507;-63
2023/09/30 13:21:18;;;;;;;62.22;58.90;;;;;;;;;;5004261;28;20041;-63
2023/09/30 13:23:44;;;;;;;62.40;59.10;;;;;;;;;;5001975;28;20045;-62
2023/09/30 13:26:09;;;;;;;60.30;57.25;;;;;;;;;;4988294;28;20042;-63
2023/09/30 13:28:34;;;;;;;64.70;61.50;;;;;;;;;;5003612;28;20038;-62
2023/09/30 13:31:00;;;;;;;57.78;54.85;;;;;;;;;;4985434;28;20506;-63
2023/09/30 13:33:26;;;;;;;66.18;62.88;;;;;;;;;;4984349;28;20034;-63
2023/09/30 13:35:51;;;;;;;63.85;60.67;;;;;;;;;;5003937;28;20052;-62
2023/09/30 13:38:17;;;;;;;61.42;58.35;;;;;;;;;;4987761;28;20042;-63
2023/09/30 13:40:42;;;;;;;58.95;55.95;;;;;;;;;;5001134;28;20052;-63
2023/09/30 13:43:07;;;;;;;64.43;61.22;;;;;;;;;;5004154;28;20069;-63
2023/09/30 13:45:34;;;;;;;59.38;56.20;;;;;;;;;;5001630;28;20395;-64
2023/09/30 13:48:00;;;;;;;66.13;62.40;;;;;;;;;;5004196;28;20030;-63
2023/09/30 13:50:25;;;;;;;70.82;67.28;;;;;;;;;;5003537;28;20487;-63
2023/09/30 13:52:50;;;;;;;64.68;61.47;;;;;;;;;;5002924;28;20033;-63
2023/09/30 13:55:19;;;;;;;68.85;65.40;;;;;;;;;;5003895;28;20038;-62
2023/09/30 13:57:48;;;;;;;53.28;50.58;;;;;;;;;;4987496;28;20049;-62
2023/09/30 14:00:15;;;;;;;69.55;66.03;;;;;;;;;;5000781;28;20124;-63
2023/09/30 14:02:41;;;;;;;70.28;66.70;;;;;;;;;;4988388;28;20125;-62
2023/09/30 14:05:08;;;;;;;66.72;63.17;;;;;;;;;;5002644;28;20132;-62
2023/09/30 14:07:34;;;;;;;64.80;61.42;;;;;;;;;;4986069;28;20053;-62
2023/09/30 14:09:59;;;;;;;61.33;58.25;;;;;;;;;;5000300;28;20030;-63
2023/09/30 14:12:25;;;;;;;59.67;56.67;;;;;;;;;;5002686;28;21112;-63
2023/09/30 14:14:51;;;;;;;53.45;50.72;;;;;;;;;;5004077;28;20030;-62
2023/09/30 14:17:17;;;;;;;61.35;58.30;;;;;;;;;;5004738;28;20042;-63
2023/09/30 14:19:43;;;;;;;50.80;48.20;;;;;;;;;;5005033;28;20192;-62
2023/09/30 14:22:09;;;;;;;64.55;61.28;;;;;;;;;;4987579;28;20514;-62
2023/09/30 14:24:38;;;;;;;66.20;62.65;;;;;;;;;;5004878;28;20355;-65
2023/09/30 14:27:04;;;;;;;58.90;55.95;;;;;;;;;;5002966;28;20363;-63
2023/09/30 14:29:30;;;;;;;63.40;60.22;;;;;;;;;;4985470;28;20030;-64
2023/09/30 14:31:56;;;;;;;68.28;64.90;;;;;;;;;;4985285;28;20567;-63
2023/09/30 14:34:22;;;;;;;68.07;64.65;;;;;;;;;;5002787;28;20029;-62
2023/09/30 14:36:47;;;;;;;68.63;65.20;;;;;;;;;;5003216;28;20049;-62
2023/09/30 14:39:13;;;;;;;49.38;46.88;;;;;;;;;;5000155;28;20455;-64
2023/09/30 14:41:38;;;;;;;43.97;41.58;;;;;;;;;;4984406;28;20041;-63
2023/09/30 14:44:07;;;;;;;58.60;55.60;;;;;;;;;;4987316;28;20459;-62
2023/09/30 14:46:36;;;;;;;52.78;50.10;;;;;;;;;;5003989;28;20081;-62
2023/09/30 14:49:02;;;;;;;63.58;60.40;;;;;;;;;;5002037;28;20064;-62
2023/09/30 14:51:27;;;;;;;43.38;41.17;;;;;;;;;;5002565;28;20359;-63
2023/09/30 14:53:52;;;;;;;43.20;41.03;;;;;;;;;;5001714;28;20040;-63